Dresser, Wisconsin
Current Conditions -  °F | °C
As of 6:55 AM on Wednesday 26 Nov 2014 (Local Time) from KOEO Reporting Station
Overcast Overcast  
Wind Chill: 24°   Ceiling: 5000
Heat Index: 24°   Visibility: 10mi
Dew Point: 17°   Wind: 3mph
Humidity: 75%   Direction: 50°NE
Pressure: 30.12"   Gusts: NA
Location:  45.36°N, 92.63°W
Report Text: KOEO 261255Z AUTO 05003KT 10SM OVC050 M04/M08 A3012 RMK AO2 T10451084
Loading
Personal Weather Stations






























Interactive Weather Map New forecast layout! Learn more

10-Day Weather Forecast

Advertisements
Track Severe Weather on mobile